Time;durP1;ratioP1;P1;durP2;ratioP2;P2;SDS_P1;SDS_P2;PMS_P1;PMS_P2;Temp;Humidity;BMP_temperature;BMP_pressure;BME280_temperature;BME280_humidity;BME280_pressure;Samples;Min_cycle;Max_cycle;Signal;HPM_P1;HPM_P2
2022/04/25 00:02:01;;;;;;;8.23;4.77;;;8.60;99.90;;;;;;2611965;54;20179;-83
2022/04/25 00:04:27;;;;;;;8.63;6.50;;;8.50;99.90;;;;;;2612916;54;20180;-83
2022/04/25 00:06:53;;;;;;;10.17;5.57;;;8.50;99.90;;;;;;2610507;54;20401;-81
2022/04/25 00:09:19;;;;;;;6.47;5.87;;;8.40;99.90;;;;;;2609667;54;20155;-78
2022/04/25 00:11:45;;;;;;;6.27;5.67;;;8.40;99.90;;;;;;2610162;54;20435;-76
2022/04/25 00:14:14;;;;;;;8.83;6.53;;;8.40;99.90;;;;;;2612056;39;20781;-82
2022/04/25 00:16:40;;;;;;;7.07;6.37;;;8.40;99.90;;;;;;2612388;54;22147;-83
2022/04/25 00:19:06;;;;;;;6.53;5.83;;;8.50;99.90;;;;;;2612596;54;20439;-81
2022/04/25 00:21:33;;;;;;;6.63;6.03;;;8.50;99.90;;;;;;2610195;54;21282;-82
2022/04/25 00:23:59;;;;;;;6.20;5.60;;;8.50;99.90;;;;;;2611065;54;20404;-78
2022/04/25 00:26:25;;;;;;;9.70;6.47;;;8.50;99.90;;;;;;2613430;46;20531;-78
2022/04/25 00:28:50;;;;;;;7.30;6.17;;;8.40;99.90;;;;;;2609464;54;20435;-83
2022/04/25 00:31:16;;;;;;;5.43;4.93;;;8.30;99.90;;;;;;2613276;54;20406;-83
2022/04/25 00:33:42;;;;;;;8.30;7.30;;;8.30;99.90;;;;;;2611555;47;20743;-83
2022/04/25 00:36:08;;;;;;;10.33;6.07;;;8.40;99.90;;;;;;2613409;54;20168;-81
2022/04/25 00:38:34;;;;;;;8.80;6.63;;;8.30;99.90;;;;;;2613534;54;20158;-74
2022/04/25 00:41:00;;;;;;;7.40;5.90;;;8.30;99.90;;;;;;2608160;54;20161;-74
2022/04/25 00:43:25;;;;;;;8.23;6.93;;;8.30;99.90;;;;;;2608170;54;20477;-79
2022/04/25 00:45:51;;;;;;;5.80;5.23;;;8.40;99.90;;;;;;2611259;54;20166;-79
2022/04/25 00:48:17;;;;;;;7.20;6.10;;;8.30;99.90;;;;;;2613468;54;20173;-78
2022/04/25 00:50:45;;;;;;;8.47;7.57;;;8.30;99.90;;;;;;2613644;47;20204;-79
2022/04/25 00:53:12;;;;;;;5.40;4.90;;;8.40;99.90;;;;;;2614439;54;20388;-78
2022/04/25 00:55:39;;;;;;;6.73;6.13;;;8.40;99.90;;;;;;2615158;54;20401;-79
2022/04/25 00:58:05;;;;;;;7.87;5.60;;;8.40;99.90;;;;;;2613687;39;21393;-80
2022/04/25 01:00:32;;;;;;;7.50;6.10;;;8.40;99.90;;;;;;2619631;54;20505;-84
2022/04/25 01:02:58;;;;;;;7.67;6.50;;;8.40;99.90;;;;;;2618755;39;20888;-82
2022/04/25 01:05:24;;;;;;;7.80;6.00;;;8.40;99.90;;;;;;2610268;54;20400;-77
2022/04/25 01:07:50;;;;;;;6.80;6.03;;;8.50;99.90;;;;;;2610903;47;20414;-80
2022/04/25 01:10:15;;;;;;;7.00;6.20;;;8.60;99.90;;;;;;2613316;54;20452;-80
2022/04/25 01:12:41;;;;;;;7.40;6.67;;;8.60;99.90;;;;;;2609726;54;22185;-80
2022/04/25 01:15:10;;;;;;;6.40;5.80;;;8.60;99.90;;;;;;2610336;54;20156;-80
2022/04/25 01:17:36;;;;;;;8.90;7.00;;;8.50;99.90;;;;;;2612372;47;20421;-78
2022/04/25 01:20:03;;;;;;;8.07;7.30;;;8.50;99.90;;;;;;2610890;54;20490;-78
2022/04/25 01:22:41;;;;;;;9.07;7.40;;;8.40;99.90;;;;;;2609680;39;21349;-79
2022/04/25 01:27:53;;;;;;;7.90;7.07;;;8.40;99.90;;;;;;2613336;54;20385;-82
2022/04/25 01:30:19;;;;;;;8.00;6.97;;;8.40;99.90;;;;;;2612878;54;20394;-82
2022/04/25 01:32:45;;;;;;;10.83;8.57;;;8.40;99.90;;;;;;2609506;54;20205;-83
2022/04/25 01:35:11;;;;;;;9.53;7.73;;;8.30;99.90;;;;;;2612781;54;20402;-82
2022/04/25 01:37:37;;;;;;;8.40;7.60;;;8.30;99.90;;;;;;2612181;54;20401;-78
2022/04/25 01:40:03;;;;;;;9.77;8.20;;;8.40;99.90;;;;;;2612211;54;20167;-78
2022/04/25 01:42:29;;;;;;;9.50;8.50;;;8.30;99.90;;;;;;2610269;39;20876;-83
2022/04/25 01:44:55;;;;;;;9.53;8.10;;;8.30;99.90;;;;;;2613452;54;20420;-82
2022/04/25 01:47:22;;;;;;;8.80;7.97;;;8.30;99.90;;;;;;2611843;54;20400;-82
2022/04/25 01:49:48;;;;;;;8.90;8.03;;;8.40;99.90;;;;;;2612275;54;20368;-81
2022/04/25 01:52:27;;;;;;;9.17;8.00;;;8.40;99.90;;;;;;2610644;54;21360;-81
2022/04/25 01:54:52;;;;;;;9.37;7.60;;;8.50;99.90;;;;;;2612555;54;20397;-83
2022/04/25 01:57:18;;;;;;;9.07;7.57;;;8.70;99.90;;;;;;2612621;54;20458;-81
2022/04/25 01:59:45;;;;;;;9.10;8.30;;;8.60;99.90;;;;;;2610581;54;20153;-82
2022/04/25 02:02:12;;;;;;;9.23;8.33;;;8.60;99.90;;;;;;2612294;54;20149;-84
2022/04/25 02:04:39;;;;;;;11.43;9.27;;;8.70;99.90;;;;;;2613530;54;20536;-83
2022/04/25 02:07:07;;;;;;;9.87;8.97;;;8.70;99.90;;;;;;2613220;54;20396;-82
2022/04/25 02:09:33;;;;;;;10.83;9.73;;;8.60;99.90;;;;;;2609382;46;20428;-81
2022/04/25 02:11:59;;;;;;;9.20;8.30;;;8.70;99.90;;;;;;2610161;47;20415;-84
2022/04/25 02:14:29;;;;;;;9.87;8.87;;;8.70;99.90;;;;;;2610872;39;20501;-83
2022/04/25 02:16:57;;;;;;;9.87;8.97;;;8.70;99.90;;;;;;2611325;54;20412;-82
2022/04/25 02:19:23;;;;;;;11.17;9.50;;;8.60;99.90;;;;;;2615059;39;20790;-82
2022/04/25 02:21:49;;;;;;;8.57;7.80;;;8.50;99.90;;;;;;2613015;54;20416;-81
2022/04/25 02:24:15;;;;;;;10.80;9.80;;;8.70;99.90;;;;;;2609628;47;20438;-79
2022/04/25 02:26:41;;;;;;;10.33;9.43;;;8.80;99.90;;;;;;2609736;54;20409;-82
2022/04/25 02:29:07;;;;;;;10.23;9.20;;;8.80;99.90;;;;;;2611737;54;20172;-81
2022/04/25 02:31:33;;;;;;;11.27;10.13;;;8.70;99.90;;;;;;2610485;54;20157;-79
2022/04/25 02:33:59;;;;;;;10.20;9.30;;;8.70;99.90;;;;;;2608362;54;21107;-78
2022/04/25 02:36:24;;;;;;;11.43;10.23;;;8.80;99.90;;;;;;2613960;54;20214;-84
2022/04/25 02:38:50;;;;;;;10.53;9.50;;;8.90;99.90;;;;;;2614454;54;20221;-86
2022/04/25 02:41:16;;;;;;;10.67;9.57;;;9.10;99.90;;;;;;2615412;54;20168;-85
2022/04/25 02:43:43;;;;;;;11.80;10.60;;;8.80;99.90;;;;;;2609640;54;20158;-84
2022/04/25 02:46:11;;;;;;;12.50;10.57;;;8.90;99.90;;;;;;2612407;47;20170;-81
2022/04/25 02:48:38;;;;;;;10.33;9.33;;;9.00;99.90;;;;;;2609011;54;20391;-81
2022/04/25 02:51:05;;;;;;;11.03;10.00;;;9.20;99.90;;;;;;2610943;54;20438;-80
2022/04/25 02:53:32;;;;;;;10.90;9.87;;;9.10;99.90;;;;;;2611335;54;20391;-80
2022/04/25 02:55:58;;;;;;;12.43;10.57;;;9.10;99.90;;;;;;2612732;47;20516;-80
2022/04/25 02:58:25;;;;;;;10.87;9.77;;;9.20;99.90;;;;;;2610059;54;20406;-79
2022/04/25 03:00:52;;;;;;;12.83;10.10;;;9.30;99.90;;;;;;2608085;47;21171;-82
2022/04/25 03:03:19;;;;;;;11.30;9.77;;;9.10;99.90;;;;;;2610417;39;21273;-83
2022/04/25 03:05:47;;;;;;;11.30;10.17;;;8.90;99.90;;;;;;2609496;54;20410;-77
2022/04/25 03:08:16;;;;;;;11.77;10.67;;;9.00;99.90;;;;;;2609291;54;20424;-76
2022/04/25 03:10:43;;;;;;;12.17;10.70;;;9.00;99.90;;;;;;2609405;47;20975;-75
2022/04/25 03:13:10;;;;;;;11.50;10.50;;;9.00;99.90;;;;;;2610918;39;20777;-75
2022/04/25 03:15:39;;;;;;;11.23;10.13;;;9.00;99.90;;;;;;2612017;39;20779;-75
2022/04/25 03:18:07;;;;;;;13.20;11.90;;;8.90;99.90;;;;;;2612575;39;20778;-76
2022/04/25 03:20:33;;;;;;;12.97;10.40;;;8.80;99.90;;;;;;2609663;54;20402;-82
2022/04/25 03:22:59;;;;;;;11.47;10.30;;;9.00;99.90;;;;;;2609828;54;20957;-81
2022/04/25 03:25:26;;;;;;;10.63;9.63;;;9.10;99.90;;;;;;2612308;47;20407;-83
2022/04/25 03:27:51;;;;;;;11.27;10.07;;;9.00;99.90;;;;;;2610438;54;20405;-84
2022/04/25 03:30:18;;;;;;;10.73;9.73;;;9.00;99.90;;;;;;2610874;39;21096;-74
2022/04/25 03:32:47;;;;;;;11.80;10.63;;;8.90;99.90;;;;;;2611953;54;20428;-73
2022/04/25 03:35:15;;;;;;;15.00;13.07;;;8.90;99.90;;;;;;2609325;54;20415;-82
2022/04/25 03:37:41;;;;;;;13.50;11.70;;;9.10;99.90;;;;;;2610481;54;20433;-82
2022/04/25 03:40:09;;;;;;;13.20;11.00;;;9.00;99.90;;;;;;2610912;54;20399;-81
2022/04/25 03:42:40;;;;;;;14.50;12.53;;;9.00;99.90;;;;;;2609702;54;20371;-82
2022/04/25 03:45:09;;;;;;;12.83;10.20;;;9.10;99.90;;;;;;2611084;54;20393;-82
2022/04/25 03:47:41;;;;;;;9.60;8.73;;;9.10;99.90;;;;;;2610430;54;20971;-83
2022/04/25 03:50:08;;;;;;;14.50;9.80;;;9.20;99.90;;;;;;2612503;54;20415;-79
2022/04/25 03:52:45;;;;;;;10.80;9.77;;;9.20;99.90;;;;;;2610328;54;20397;-81
2022/04/25 03:57:58;;;;;;;16.17;10.47;;;9.20;99.90;;;;;;2607597;54;20404;-77
2022/04/25 04:00:24;;;;;;;17.13;11.90;;;9.10;99.90;;;;;;2610035;54;20405;-73
2022/04/25 04:02:50;;;;;;;11.97;10.77;;;9.00;99.90;;;;;;2607957;47;20410;-73
2022/04/25 04:05:17;;;;;;;13.43;11.43;;;9.00;99.90;;;;;;2610676;39;20654;-81
2022/04/25 04:07:44;;;;;;;14.20;11.33;;;8.90;99.90;;;;;;2612460;54;20160;-82
2022/04/25 04:10:10;;;;;;;16.07;13.20;;;8.80;99.90;;;;;;2612339;54;20415;-82
2022/04/25 04:12:37;;;;;;;14.00;12.47;;;8.80;99.90;;;;;;2611432;54;20375;-82
2022/04/25 04:15:06;;;;;;;21.60;13.97;;;8.80;99.90;;;;;;2610219;54;20431;-78
2022/04/25 04:17:35;;;;;;;14.40;12.47;;;8.80;99.90;;;;;;2607800;54;20973;-78
2022/04/25 04:20:03;;;;;;;16.07;12.40;;;8.70;99.90;;;;;;2607160;54;20405;-82
2022/04/25 04:22:33;;;;;;;16.60;13.60;;;8.80;99.90;;;;;;2609756;54;20410;-82
2022/04/25 04:25:05;;;;;;;14.70;13.20;;;8.80;99.90;;;;;;2611918;39;20781;-78
2022/04/25 04:27:31;;;;;;;14.63;12.70;;;8.90;99.90;;;;;;2611839;39;20883;-78
2022/04/25 04:29:58;;;;;;;14.63;12.63;;;9.10;99.90;;;;;;2609019;54;20470;-78
2022/04/25 04:32:29;;;;;;;14.77;12.97;;;9.10;99.90;;;;;;2609570;54;20463;-76
2022/04/25 04:34:55;;;;;;;16.83;14.13;;;9.10;99.90;;;;;;2608480;54;20406;-82
2022/04/25 04:37:21;;;;;;;16.33;14.63;;;9.10;99.90;;;;;;2611432;47;20914;-82
2022/04/25 04:39:47;;;;;;;18.70;14.50;;;9.20;99.90;;;;;;2610357;54;20409;-82
2022/04/25 04:42:13;;;;;;;21.67;16.10;;;9.10;99.90;;;;;;2611774;54;20522;-82
2022/04/25 04:44:41;;;;;;;20.60;16.90;;;9.10;99.90;;;;;;2612055;54;20658;-77
2022/04/25 04:47:07;;;;;;;26.83;18.27;;;9.20;99.90;;;;;;2607983;54;20173;-77
2022/04/25 04:49:32;;;;;;;26.30;20.77;;;9.30;99.90;;;;;;2610513;54;20395;-73
2022/04/25 04:51:58;;;;;;;32.00;23.37;;;9.40;99.90;;;;;;2607394;54;20425;-73
2022/04/25 04:54:24;;;;;;;32.43;20.70;;;9.40;99.90;;;;;;2607061;54;20189;-75
2022/04/25 04:56:50;;;;;;;31.00;22.20;;;9.40;99.90;;;;;;2608769;39;20899;-76
2022/04/25 04:59:15;;;;;;;33.13;22.83;;;9.30;99.90;;;;;;2608571;54;20762;-78
2022/04/25 05:01:42;;;;;;;30.50;22.10;;;9.30;99.90;;;;;;2610456;54;20153;-80
2022/04/25 05:04:08;;;;;;;26.67;19.07;;;9.30;99.90;;;;;;2610894;54;20412;-75
2022/04/25 05:06:34;;;;;;;24.40;19.33;;;9.30;99.90;;;;;;2609965;54;20379;-76
2022/04/25 05:08:59;;;;;;;23.60;18.40;;;9.40;99.90;;;;;;2607569;54;20151;-82
2022/04/25 05:11:29;;;;;;;24.80;17.80;;;9.40;99.90;;;;;;2609794;54;20161;-82
2022/04/25 05:13:55;;;;;;;27.50;17.90;;;9.40;99.90;;;;;;2610853;54;20158;-82
2022/04/25 05:16:21;;;;;;;26.17;20.30;;;9.40;99.90;;;;;;2609749;54;20504;-82
2022/04/25 05:18:46;;;;;;;24.87;16.63;;;9.40;99.90;;;;;;2612434;39;21271;-82
2022/04/25 05:21:13;;;;;;;22.60;17.33;;;9.40;99.90;;;;;;2612675;54;20233;-84
2022/04/25 05:23:41;;;;;;;20.97;17.50;;;9.30;99.90;;;;;;2609333;54;20158;-83
2022/04/25 05:26:08;;;;;;;21.30;16.90;;;9.40;99.90;;;;;;2611995;39;20834;-80
2022/04/25 05:28:34;;;;;;;23.50;18.00;;;9.50;99.90;;;;;;2612564;54;20395;-79
2022/04/25 05:31:00;;;;;;;23.37;18.77;;;9.40;99.90;;;;;;2614399;54;20463;-80
2022/04/25 05:33:26;;;;;;;24.07;18.60;;;9.40;99.90;;;;;;2612772;54;20437;-80
2022/04/25 05:35:52;;;;;;;27.97;20.60;;;9.40;99.90;;;;;;2614143;54;20415;-82
2022/04/25 05:38:18;;;;;;;22.03;17.87;;;9.30;99.90;;;;;;2612316;39;20577;-81
2022/04/25 05:40:50;;;;;;;24.57;17.23;;;9.40;99.90;;;;;;2611165;54;20504;-81
2022/04/25 05:43:17;;;;;;;19.47;16.37;;;9.30;99.90;;;;;;2612482;39;21258;-81
2022/04/25 05:45:46;;;;;;;24.57;19.43;;;9.30;99.90;;;;;;2614621;54;20446;-90
2022/04/25 05:54:00;;;;;;;19.57;17.47;;;9.10;99.90;;;;;;2610746;47;20401;-75
2022/04/25 05:56:26;;;;;;;19.30;16.30;;;9.10;99.90;;;;;;2607988;54;20467;-75
2022/04/25 05:58:55;;;;;;;26.70;17.33;;;9.10;99.90;;;;;;2609147;54;20165;-75
2022/04/25 06:01:20;;;;;;;23.33;18.23;;;9.10;99.90;;;;;;2610609;54;20397;-76
2022/04/25 06:04:13;;;;;;;21.93;17.67;;;9.10;99.90;;;;;;2611796;39;20754;-75
2022/04/25 06:06:39;;;;;;;20.70;17.70;;;9.10;99.90;;;;;;2612359;39;20597;-76
2022/04/25 06:09:05;;;;;;;20.13;17.93;;;9.30;99.90;;;;;;2618024;54;20398;-81
2022/04/25 06:11:32;;;;;;;19.70;17.00;;;9.20;99.90;;;;;;2620259;54;20145;-82
2022/04/25 06:14:00;;;;;;;21.67;18.47;;;9.20;99.90;;;;;;2614535;54;20394;-77
2022/04/25 06:16:26;;;;;;;20.30;15.20;;;9.30;99.90;;;;;;2610668;39;20798;-78
2022/04/25 06:18:52;;;;;;;22.60;18.77;;;9.30;99.90;;;;;;2610025;54;20418;-78
2022/04/25 06:21:17;;;;;;;27.00;18.97;;;9.30;99.90;;;;;;2610160;47;20461;-78
2022/04/25 06:23:43;;;;;;;21.17;18.53;;;9.40;99.90;;;;;;2607167;54;20163;-78
2022/04/25 06:26:09;;;;;;;23.43;16.57;;;9.40;99.90;;;;;;2609135;54;20746;-84
2022/04/25 06:28:36;;;;;;;20.30;17.20;;;9.40;99.90;;;;;;2610864;54;20686;-85
2022/04/25 06:31:02;;;;;;;20.57;17.40;;;9.60;99.90;;;;;;2612154;54;20170;-84
2022/04/25 06:33:28;;;;;;;19.60;16.53;;;9.50;99.90;;;;;;2613618;47;20443;-84
2022/04/25 06:35:54;;;;;;;19.10;17.03;;;9.60;99.90;;;;;;2609676;54;20412;-79
2022/04/25 06:38:21;;;;;;;24.37;18.50;;;9.50;99.90;;;;;;2609484;54;20290;-79
2022/04/25 06:40:47;;;;;;;20.60;17.80;;;9.50;99.90;;;;;;2608158;47;21066;-77
2022/04/25 06:43:16;;;;;;;21.47;19.17;;;9.50;99.90;;;;;;2609553;47;20425;-78
2022/04/25 06:45:43;;;;;;;20.20;17.43;;;9.60;99.90;;;;;;2615794;54;20433;-82
2022/04/25 06:48:08;;;;;;;20.83;18.30;;;9.70;99.90;;;;;;2614213;54;20488;-83
2022/04/25 06:50:35;;;;;;;20.13;18.03;;;9.80;99.90;;;;;;2612623;47;21380;-79
2022/04/25 06:53:01;;;;;;;24.60;18.20;;;9.70;99.90;;;;;;2611760;54;20304;-79
2022/04/25 06:55:27;;;;;;;22.70;18.50;;;9.80;99.90;;;;;;2611087;47;20414;-77
2022/04/25 06:57:54;;;;;;;18.23;16.23;;;9.80;99.90;;;;;;2609852;54;20454;-78
2022/04/25 07:00:22;;;;;;;18.27;16.27;;;9.90;99.90;;;;;;2612582;54;20443;-80
2022/04/25 07:02:49;;;;;;;17.07;14.03;;;10.00;99.90;;;;;;2611584;54;20522;-81
2022/04/25 07:05:14;;;;;;;16.57;14.87;;;10.00;99.90;;;;;;2610070;31;20855;-77
2022/04/25 07:07:40;;;;;;;15.77;14.17;;;9.90;99.90;;;;;;2611333;54;20436;-77
2022/04/25 07:10:07;;;;;;;14.37;12.90;;;10.00;99.90;;;;;;2611284;54;20165;-77
2022/04/25 07:12:32;;;;;;;14.90;13.43;;;10.00;99.90;;;;;;2609635;54;20254;-77
2022/04/25 07:14:59;;;;;;;14.97;13.13;;;10.00;99.90;;;;;;2611156;54;20988;-77
2022/04/25 07:17:26;;;;;;;14.37;12.83;;;10.10;99.90;;;;;;2611874;54;20432;-76
2022/04/25 07:19:51;;;;;;;12.97;11.67;;;10.10;99.90;;;;;;2611388;54;20499;-77
2022/04/25 07:30:34;;;;;;;13.83;12.53;;;10.20;99.90;;;;;;2609265;47;20443;-77
2022/04/25 07:33:00;;;;;;;14.70;12.97;;;10.20;99.90;;;;;;2612788;54;21069;-77
2022/04/25 07:35:27;;;;;;;15.80;14.03;;;10.30;99.90;;;;;;2613284;54;20388;-79
2022/04/25 07:37:55;;;;;;;15.70;14.20;;;10.20;99.90;;;;;;2612333;54;20394;-79
2022/04/25 07:40:22;;;;;;;16.83;15.13;;;10.10;99.90;;;;;;2613457;54;20409;-80
2022/04/25 07:42:48;;;;;;;21.17;17.13;;;10.10;99.90;;;;;;2611479;54;20424;-77
2022/04/25 07:45:14;;;;;;;19.57;17.47;;;10.20;99.90;;;;;;2611412;54;20535;-78
2022/04/25 07:47:43;;;;;;;18.40;16.50;;;10.20;99.90;;;;;;2612075;39;20775;-77
2022/04/25 07:50:14;;;;;;;22.07;19.43;;;10.20;99.90;;;;;;2611484;54;20419;-84
2022/04/25 07:52:39;;;;;;;20.80;18.57;;;10.30;99.90;;;;;;2613096;47;20428;-82
2022/04/25 07:55:09;;;;;;;18.73;16.80;;;10.20;99.90;;;;;;2614366;54;20406;-77
2022/04/25 07:57:35;;;;;;;22.67;20.23;;;10.20;99.90;;;;;;2610912;54;20460;-76
2022/04/25 08:00:04;;;;;;;21.07;18.13;;;10.20;99.90;;;;;;2611152;31;20919;-75
2022/04/25 08:02:32;;;;;;;22.53;20.13;;;10.30;99.90;;;;;;2609967;54;21106;-75
2022/04/25 08:04:58;;;;;;;22.40;20.10;;;10.20;99.90;;;;;;2610947;47;20406;-74
2022/04/25 08:07:24;;;;;;;24.63;18.43;;;10.10;99.90;;;;;;2611247;54;20158;-73
2022/04/25 08:09:50;;;;;;;23.27;19.63;;;10.00;99.90;;;;;;2610202;54;20383;-73
2022/04/25 08:18:01;;;;;;;24.23;20.27;;;9.90;99.90;;;;;;2613342;54;20387;-82
2022/04/25 08:20:28;;;;;;;24.03;19.97;;;9.90;99.90;;;;;;2613065;39;21095;-82
2022/04/25 08:22:56;;;;;;;23.80;19.83;;;9.80;99.90;;;;;;2612650;54;20398;-82
2022/04/25 08:25:22;;;;;;;23.87;19.00;;;9.80;99.90;;;;;;2611142;54;20414;-84
2022/04/25 08:27:48;;;;;;;24.03;18.20;;;9.80;99.90;;;;;;2610726;47;20538;-84
2022/04/25 08:30:14;;;;;;;20.57;18.23;;;9.90;99.90;;;;;;2610737;54;20415;-77
2022/04/25 08:32:40;;;;;;;19.70;17.00;;;9.90;99.90;;;;;;2610351;47;20163;-77
2022/04/25 08:35:07;;;;;;;21.73;18.47;;;9.90;99.90;;;;;;2611302;54;20467;-84
2022/04/25 08:37:33;;;;;;;21.63;18.00;;;10.00;99.90;;;;;;2611495;54;20490;-83
2022/04/25 08:39:59;;;;;;;22.73;18.63;;;9.90;99.90;;;;;;2610671;46;20446;-76
2022/04/25 08:42:25;;;;;;;23.27;18.13;;;9.90;99.90;;;;;;2606490;47;20419;-77
2022/04/25 08:44:53;;;;;;;21.77;16.80;;;10.00;99.90;;;;;;2609912;54;20425;-86
2022/04/25 08:47:20;;;;;;;20.17;17.80;;;9.90;99.90;;;;;;2613325;39;20744;-86
2022/04/25 08:49:46;;;;;;;21.40;16.70;;;10.00;99.90;;;;;;2612081;54;20438;-74
2022/04/25 08:52:12;;;;;;;22.30;17.93;;;10.00;99.90;;;;;;2611331;54;20499;-74
2022/04/25 08:54:39;;;;;;;20.33;17.60;;;10.10;99.90;;;;;;2612311;54;20458;-85
2022/04/25 08:57:05;;;;;;;18.33;16.27;;;10.10;99.90;;;;;;2613477;54;20440;-84
2022/04/25 08:59:33;;;;;;;19.00;16.80;;;10.30;99.90;;;;;;2614046;39;21227;-84
2022/04/25 09:01:59;;;;;;;21.70;16.47;;;10.20;99.90;;;;;;2614023;39;20777;-83
2022/04/25 09:04:26;;;;;;;19.50;15.13;;;10.30;99.90;;;;;;2612695;47;20463;-80
2022/04/25 09:06:54;;;;;;;16.20;14.60;;;10.40;99.90;;;;;;2610625;54;20422;-79
2022/04/25 09:09:20;;;;;;;16.73;15.03;;;10.40;99.90;;;;;;2611772;54;21290;-75
2022/04/25 09:14:32;;;;;;;17.50;15.77;;;10.40;99.90;;;;;;2612306;54;20387;-85
2022/04/25 09:16:59;;;;;;;20.00;16.80;;;10.60;99.90;;;;;;2613860;54;20399;-85
2022/04/25 09:19:26;;;;;;;13.60;12.20;;;10.70;99.90;;;;;;2613633;54;20532;-82
2022/04/25 09:21:51;;;;;;;16.60;14.90;;;10.90;99.90;;;;;;2612872;54;20410;-83
2022/04/25 09:24:22;;;;;;;15.50;13.93;;;10.90;99.90;;;;;;2612135;54;20427;-76
2022/04/25 09:27:11;;;;;;;16.83;14.60;;;11.10;99.90;;;;;;2611130;54;21250;-76
2022/04/25 09:29:39;;;;;;;17.50;15.70;;;11.40;99.90;;;;;;2612623;54;20433;-85
2022/04/25 09:32:09;;;;;;;14.60;12.40;;;11.60;99.90;;;;;;2613843;54;20362;-85
2022/04/25 09:37:40;;;;;;;12.90;11.70;;;12.30;99.90;;;;;;2619735;54;20425;-85
2022/04/25 09:40:06;;;;;;;14.77;13.27;;;12.90;99.90;;;;;;2615626;54;20514;-77
2022/04/25 09:42:33;;;;;;;14.17;12.80;;;13.10;99.90;;;;;;2611829;54;20431;-78
2022/04/25 09:45:00;;;;;;;16.03;14.40;;;13.30;99.90;;;;;;2612491;54;20577;-83
2022/04/25 09:47:29;;;;;;;17.93;13.50;;;13.60;99.90;;;;;;2612864;47;20353;-83
2022/04/25 09:50:21;;;;;;;18.20;14.50;;;13.80;99.90;;;;;;2614247;47;20431;-76
2022/04/25 09:52:56;;;;;;;18.03;16.20;;;13.90;99.90;;;;;;2613178;39;20831;-76
2022/04/25 09:55:25;;;;;;;20.50;18.00;;;14.40;99.90;;;;;;2612172;54;20522;-78
2022/04/25 09:57:51;;;;;;;20.77;18.13;;;14.80;99.90;;;;;;2613120;31;21032;-78
2022/04/25 10:00:32;;;;;;;19.67;17.73;;;15.40;99.90;;;;;;2612653;54;20387;-75
2022/04/25 10:03:01;;;;;;;19.33;17.33;;;15.50;99.90;;;;;;2608984;54;20167;-75
2022/04/25 10:05:39;;;;;;;18.90;17.13;;;15.10;99.90;;;;;;2610875;54;20491;-74
2022/04/25 10:08:10;;;;;;;18.40;16.50;;;14.90;99.90;;;;;;2610942;54;20420;-75
2022/04/25 10:10:57;;;;;;;20.97;19.00;;;14.50;99.90;;;;;;2615805;47;20413;-85
2022/04/25 10:13:24;;;;;;;19.40;16.77;;;14.10;99.90;;;;;;2615809;54;20374;-88
2022/04/25 10:15:50;;;;;;;18.63;15.90;;;13.80;99.90;;;;;;2615089;46;20441;-89
2022/04/25 10:18:16;;;;;;;17.00;15.20;;;13.50;99.90;;;;;;2615629;54;20423;-88
2022/04/25 10:20:45;;;;;;;17.33;15.60;;;13.60;99.90;;;;;;2616505;54;20447;-83
2022/04/25 10:23:13;;;;;;;17.10;15.30;;;13.70;99.90;;;;;;2610796;54;20464;-84
2022/04/25 10:25:45;;;;;;;18.03;15.00;;;14.20;99.90;;;;;;2628691;36;20443;-83
2022/04/25 10:28:27;;;;;;;15.77;14.13;;;14.70;99.90;;;;;;2611347;54;20419;-82
2022/04/25 10:31:01;;;;;;;17.20;15.47;;;14.70;99.90;;;;;;2611658;54;20486;-76
2022/04/25 10:33:28;;;;;;;17.20;15.50;;;14.60;99.90;;;;;;2612144;54;20419;-77
2022/04/25 10:35:54;;;;;;;18.53;16.73;;;14.40;99.90;;;;;;2612906;54;20397;-75
2022/04/25 10:38:47;;;;;;;18.07;16.17;;;14.00;99.90;;;;;;2612150;54;20452;-74
2022/04/25 10:44:17;;;;;;;17.63;15.93;;;13.70;99.90;;;;;;2611573;54;20415;-78
2022/04/25 10:47:11;;;;;;;17.53;15.73;;;13.60;99.90;;;;;;2610632;54;20446;-78
2022/04/25 10:49:53;;;;;;;20.87;17.53;;;13.60;99.90;;;;;;2611900;54;20407;-74
2022/04/25 10:52:34;;;;;;;18.93;17.13;;;13.60;99.90;;;;;;2611514;54;20498;-74
2022/04/25 10:55:20;;;;;;;19.37;16.07;;;13.50;99.90;;;;;;2612607;54;20416;-73
2022/04/25 10:58:07;;;;;;;68.27;55.30;;;13.50;99.90;;;;;;2612589;47;20428;-75
2022/04/25 11:00:36;;;;;;;73.73;50.87;;;13.50;99.90;;;;;;2612032;54;20522;-75
2022/04/25 11:03:29;;;;;;;60.40;53.97;;;13.80;99.90;;;;;;2611343;54;20402;-75
2022/04/25 11:06:04;;;;;;;19.43;16.97;;;14.00;99.90;;;;;;2612142;54;20399;-81
2022/04/25 11:08:36;;;;;;;18.90;17.20;;;14.20;99.90;;;;;;2613259;54;20453;-82
2022/04/25 11:11:05;;;;;;;24.23;21.97;;;14.40;99.90;;;;;;2612945;47;20428;-75
2022/04/25 11:13:49;;;;;;;16.00;14.30;;;14.80;99.90;;;;;;2617679;39;21039;-76
2022/04/25 11:16:18;;;;;;;16.60;15.03;;;15.00;99.90;;;;;;2613841;54;20542;-77
2022/04/25 11:18:45;;;;;;;15.50;14.10;;;14.90;99.90;;;;;;2609202;54;20401;-76
2022/04/25 11:21:16;;;;;;;14.23;12.80;;;14.70;99.90;;;;;;2609934;54;20403;-73
2022/04/25 11:23:45;;;;;;;17.30;14.73;;;14.70;99.90;;;;;;2608772;54;20458;-74
2022/04/25 11:26:21;;;;;;;16.57;15.10;;;14.80;99.90;;;;;;2610660;54;20446;-83
2022/04/25 11:29:03;;;;;;;15.67;14.07;;;14.50;99.90;;;;;;2609784;39;20622;-83
2022/04/25 11:31:30;;;;;;;16.03;13.40;;;14.50;99.90;;;;;;2610930;39;20779;-83
2022/04/25 11:34:00;;;;;;;17.20;15.40;;;14.30;99.90;;;;;;2611640;54;20494;-83
2022/04/25 11:36:29;;;;;;;34.97;32.17;;;14.00;99.90;;;;;;2610718;54;20417;-84
2022/04/25 11:42:06;;;;;;;17.40;15.70;;;13.80;99.90;;;;;;2611332;54;20395;-87
2022/04/25 11:44:35;;;;;;;22.13;19.13;;;13.60;99.90;;;;;;2612550;54;20410;-83
2022/04/25 11:47:01;;;;;;;19.47;17.47;;;13.50;99.90;;;;;;2609935;54;20499;-83
2022/04/25 11:49:38;;;;;;;21.00;18.93;;;13.60;99.90;;;;;;2610722;39;20814;-81
2022/04/25 11:52:05;;;;;;;20.13;17.57;;;13.50;99.90;;;;;;2611303;54;20478;-79
2022/04/25 11:54:32;;;;;;;23.03;20.37;;;13.40;99.90;;;;;;2609113;54;20459;-82
2022/04/25 11:57:01;;;;;;;23.13;20.83;;;13.40;99.90;;;;;;2610813;54;20434;-82
2022/04/25 11:59:28;;;;;;;23.30;20.33;;;13.50;99.90;;;;;;2609593;54;20427;-78
2022/04/25 12:01:54;;;;;;;19.30;17.30;;;13.60;99.90;;;;;;2606077;54;20406;-78
2022/04/25 12:04:22;;;;;;;22.87;18.93;;;13.40;99.90;;;;;;2610279;54;20402;-84
2022/04/25 12:06:57;;;;;;;22.30;19.10;;;13.20;99.90;;;;;;2611177;54;20550;-84
2022/04/25 12:17:51;;;;;;;21.47;17.63;;;12.90;99.90;;;;;;2610234;54;20438;-83
2022/04/25 12:20:19;;;;;;;25.73;18.20;;;13.10;99.90;;;;;;2610662;54;20407;-82
2022/04/25 12:22:58;;;;;;;19.53;17.53;;;13.00;99.90;;;;;;2612869;54;20399;-81
2022/04/25 12:25:26;;;;;;;19.63;17.63;;;12.90;99.90;;;;;;2612492;54;21124;-80
2022/04/25 12:28:15;;;;;;;21.50;18.90;;;12.80;99.90;;;;;;2612444;47;20411;-79
2022/04/25 12:30:49;;;;;;;23.43;19.03;;;12.70;99.90;;;;;;2611114;54;20411;-78
2022/04/25 12:33:17;;;;;;;21.20;19.00;;;12.60;99.90;;;;;;2628571;36;20457;-79
2022/04/25 12:35:45;;;;;;;20.93;16.57;;;12.60;99.90;;;;;;2612128;47;20455;-79
2022/04/25 12:38:32;;;;;;;17.90;16.07;;;12.50;99.90;;;;;;2612123;47;20418;-79
2022/04/25 12:40:58;;;;;;;20.17;16.60;;;12.40;99.90;;;;;;2611713;51;20435;-80
2022/04/25 12:43:45;;;;;;;20.70;17.00;;;12.50;99.90;;;;;;2610341;54;21054;-81
2022/04/25 12:46:13;;;;;;;21.57;17.47;;;12.50;99.90;;;;;;2610016;39;20293;-82
2022/04/25 12:49:03;;;;;;;22.00;18.73;;;12.60;99.90;;;;;;2612841;54;20435;-82
2022/04/25 12:51:47;;;;;;;20.47;18.27;;;12.80;99.90;;;;;;2608995;54;20409;-82
2022/04/25 12:54:37;;;;;;;19.90;17.83;;;12.70;99.90;;;;;;2611247;47;20422;-81
2022/04/25 12:57:24;;;;;;;16.27;14.57;;;12.80;99.90;;;;;;2611184;54;21069;-80
2022/04/25 12:59:53;;;;;;;17.67;15.30;;;12.80;99.90;;;;;;2609712;46;20429;-79
2022/04/25 13:02:39;;;;;;;15.23;12.67;;;12.70;99.90;;;;;;2611418;54;20452;-81
2022/04/25 13:05:13;;;;;;;13.80;12.40;;;12.60;99.90;;;;;;2611051;54;20424;-82
2022/04/25 13:07:46;;;;;;;14.27;12.77;;;12.60;99.90;;;;;;2611706;54;20538;-83
2022/04/25 13:10:16;;;;;;;15.30;13.80;;;12.60;99.90;;;;;;2609309;54;20413;-80
2022/04/25 13:12:48;;;;;;;14.90;13.30;;;12.60;99.90;;;;;;2608309;54;20449;-80
2022/04/25 13:15:22;;;;;;;16.33;14.73;;;12.70;99.90;;;;;;2610729;54;20394;-80
2022/04/25 13:17:54;;;;;;;16.37;14.67;;;12.70;99.90;;;;;;2615531;39;20888;-80
2022/04/25 13:20:22;;;;;;;12.57;11.40;;;12.80;99.90;;;;;;2616796;54;20402;-82
2022/04/25 13:22:52;;;;;;;11.90;10.70;;;12.90;99.90;;;;;;2613803;54;20526;-83
2022/04/25 13:25:20;;;;;;;13.50;11.03;;;12.90;99.90;;;;;;2615086;47;20478;-78
2022/04/25 13:27:48;;;;;;;16.20;12.40;;;13.10;99.90;;;;;;2613882;54;20425;-78
2022/04/25 13:30:16;;;;;;;16.53;14.97;;;13.40;99.90;;;;;;2612718;47;20427;-78